METAR Data
IDs: Format: Raw Decoded Include TAF

Data at: 1515 UTC 12 Dec 2018

PFKT 120256Z AUTO 03025KT 4SM BR OVC110 M09/M11 A2900 RMK AO2 PK WND 03031/0253 SLPNO 6//// T10891111 FZRANO
PFKT 120056Z AUTO 02021KT 10SM BKN060 OVC075 M08/M11 A2901 RMK AO2 SNE13 SLP825 P0000 T10831106 FZRANO
PFKT 112356Z AUTO 02019KT 9SM -SN OVC050 M08/M11 A2901 RMK AO2 PK WND 02026/2325 SNB01 SLP826 P0000 60000 T10831111 11078 21089 51006 FZRANO
PFKT 112256Z AUTO 03022KT 7SM OVC060 M08/M11 A2901 RMK AO2 SNE37 SLP823 P0000 T10831106 FZRANO
PFKT 112156Z AUTO 02018KT 9SM -SN OVC050 M08/M12 A2900 RMK AO2 SLP822 P0000 T10831117 FZRANO
PFKT 112056Z AUTO 02021KT 6SM -SN OVC048 M09/M12 A2899 RMK AO2 PK WND 02026/2033 SNB25 SLP819 P0000 60000 T10891117 51009 FZRANO
PFKT 111956Z AUTO 02021KT 10SM BKN070 OVC080 M08/M12 A2899 RMK AO2 PK WND 03026/1937 SNE18 SLP818 P0000 T10831117 FZRANO
PFKT 111856Z AUTO 03021KT 8SM -SN SCT055 BKN070 OVC090 M09/M11 A2898 RMK AO2 PK WND 03027/1837 SLP815 P0000 T10891111 FZRANO
PFKT 111756Z AUTO 02020KT 9SM -SN FEW038 BKN055 OVC070 M09/M11 A2897 RMK AO2 PK WND 03027/1701 SLP810 P0000 60000 T10891111 11089 21094 51006 FZRANO
PFKT 111741Z AUTO 02020KT 7SM -SN FEW022 BKN037 OVC070 M09/M11 A2897 RMK AO2 PK WND 03027/1701 P0000 FZRANO
PFKT 111730Z AUTO 02022KT 3SM -SN BR BKN025 OVC036 M09/M11 A2897 RMK AO2 PK WND 03027/1701 P0000 FZRANO
PFKT 111710Z AUTO 02020KT 1 1/2SM -SN BR BKN027 OVC036 M09/M11 A2896 RMK AO2 PK WND 03027/1701 P0000 FZRANO
PFKT 111703Z AUTO 03023KT 1 3/4SM -SN BR SCT024 OVC036 M09/M11 A2896 RMK AO2 PK WND 03027/1701 P0000 FZRANO
PFKT 111656Z AUTO 03023KT 1 1/2SM -SN BR BKN026 OVC036 M09/M11 A2896 RMK AO2 PK WND 03032/1559 SLP808 P0000 T10891111 FZRANO
PFKT 111654Z AUTO 03023KT 1 1/2SM -SN BR BKN026 OVC034 M09/M11 A2896 RMK AO2 PK WND 03032/1559 P0000 FZRANO
PFKT 111639Z AUTO 03026G31KT 1SM -SN BR BKN026 OVC033 M09/M11 A2895 RMK AO2 PK WND 03032/1559 P0000 FZRANO
PFKT 111634Z AUTO 03027KT 1 1/4SM -SN BR SCT026 OVC033 M09/M11 A2895 RMK AO2 PK WND 03032/1559 P0000 FZRANO
PFKT 111630Z AUTO 03026KT 1SM -SN BR BKN029 OVC035 M09/M11 A2895 RMK AO2 PK WND 03032/1559 P0000 FZRANO
PFKT 111624Z AUTO 03025G30KT 1 1/4SM -SN BR OVC034 M09/M11 A2895 RMK AO2 PK WND 03032/1559 P0000 FZRANO
PFKT 111605Z AUTO 03023G32KT 2SM -SN BR SCT026 OVC034 M09/M11 A2896 RMK AO2 PK WND 03032/1559 VIS 1 1/2V3 P0000 FZRANO
PFKT 111556Z AUTO 03025G29KT 1 1/2SM -SN BR BKN026 OVC032 M09/M11 A2895 RMK AO2 PK WND 03030/1539 VIS 3/4V2 1/2 SLP804 P0000 T10891111 FZRANO
PFKT 111503Z AUTO 03023KT 1 3/4SM -SN BR BKN028 OVC035 M09/M12 A2895 RMK AO2 PK WND 03027/1502 VIS 1 1/2V3 P0000 FZRANO
PFKT 111456Z AUTO 02022KT 2SM -SN BR BKN030 OVC037 M09/M12 A2895 RMK AO2 PK WND 02028/1454 SLP805 P0000 60000 T10941117 58005 FZRANO
PFKT 111411Z AUTO 02021KT 2 1/2SM -SN SCT024 OVC033 M09/M12 A2895 RMK AO2 P0000 FZRANO
PFKT 111356Z AUTO 03018KT 3SM -SN OVC024 M09/M12 A2896 RMK AO2 SLP809 P0000 T10891117 FZRANO
PFKT 111354Z AUTO 03018KT 3SM -SN OVC024 M09/M12 A2896 RMK AO2 P0000 FZRANO
PFKT 111321Z AUTO 04021KT 2SM -SN OVC016 M09/M12 A2897 RMK AO2 P0000 FZRANO
PFKT 111307Z AUTO 04021KT 1 3/4SM -SN BKN016 OVC040 M09/M12 A2897 RMK AO2 P0000 FZRANO
PFKT 111256Z AUTO 04021G25KT 2 1/2SM -SN BKN018 BKN028 OVC040 M09/M12 A2897 RMK AO2 PK WND 04028/1207 SLP810 P0000 T10891117 FZRANO
PFKT 111246Z AUTO 04021KT 4SM -SN SCT020 SCT030 OVC040 M09/M12 A2897 RMK AO2 PK WND 04028/1207 P0000 FZRANO
PFKT 111221Z AUTO 05019KT 3SM -SN SCT020 BKN025 OVC038 M09/M12 A2897 RMK AO2 PK WND 04028/1207 P0000 FZRANO
PFKT 111211Z AUTO 04023KT 3SM -SN SCT025 BKN037 OVC046 M09/M12 A2896 RMK AO2 PK WND 04028/1207 P0000 FZRANO
PFKT 111156Z AUTO 04025G29KT 2 1/2SM -SN SCT024 BKN038 OVC046 M09/M12 A2896 RMK AO2 PK WND 04033/1112 VIS 2V3 SLP807 P0000 60000 T10891117 11089 21100 55005 FZRANO
PFKT 111137Z AUTO 04023KT 2 1/2SM -SN BR FEW021 BKN039 OVC046 M09/M11 A2896 RMK AO2 PK WND 04033/1112 P0000 FZRANO
PFKT 111056Z AUTO 04029G34KT 1 1/2SM -SN BR OVC040 M09/M11 A2894 RMK AO2 PK WND 03038/1017 SLP799 P0000 T10891111 FZRANO
PFKT 111032Z AUTO 03028G34KT 1 1/2SM -SN BR BKN036 OVC044 M09/M11 A2894 RMK AO2 PK WND 03038/1017 VIS 1V2 P0000 FZRANO
PFKT 111005Z AUTO 03027G31KT 1SM -SN BR FEW020 OVC043 M09/M11 A2893 RMK AO2 PK WND 04031/1004 PRESFR P0000 FZRANO
PFKT 110956Z AUTO 04023G30KT 1 1/4SM -SN BR FEW022 OVC045 M09/M11 A2894 RMK AO2 PK WND 04030/0956 VIS 1V3 SLP802 P0000 T10941111 FZRANO
PFKT 110943Z AUTO 04021G26KT 1 3/4SM -SN BR FEW021 OVC047 M09/M12 A2896 RMK AO2 PK WND 04026/0942 P0000 FZRANO
PFKT 110931Z AUTO 06014G17KT 9SM -SN SCT018 OVC047 M09/M12 A2897 RMK AO2 P0000 FZRANO
PFKT 110856Z AUTO 03008G15KT 340V060 9SM -SN BKN018 OVC037 M09/M12 A2897 RMK AO2 SLP812 P0000 60000 T10941122 410941139 50005 FZRANO
PFKT 110756Z AUTO 04011KT 9SM -SN OVC032 M09/M13 A2898 RMK AO2 SLP814 P0000 T10941128 FZRANO
PFKT 110656Z AUTO 03020KT 7SM -SN OVC070 M10/M13 A2897 RMK AO2 PK WND 03030/0625 SLP810 P0000 T11001128 FZRANO
PFKT 110646Z AUTO 03022KT 4SM -SN OVC070 M10/M13 A2896 RMK AO2 PK WND 03030/0625 P0000 FZRANO
PFKT 110633Z AUTO 03026KT 2SM -SN OVC070 M10/M13 A2896 RMK AO2 PK WND 03030/0625 VIS 1 3/4V3 P0000 FZRANO
PFKT 110556Z AUTO 03025KT 3SM -SN FEW006 OVC070 M10/M13 A2896 RMK AO2 PK WND 03029/0545 SLP807 P0000 60000 T11001128 11100 21122 55003 FZRANO
PFKT 110456Z AUTO 03024KT 6SM -SN OVC075 M11/M13 A2896 RMK AO2 PK WND 03030/0411 SLP806 P0000 T11061133 FZRANO
PFKT 110356Z AUTO 03026KT 8SM -SN OVC048 M11/M14 A2896 RMK AO2 PK WND 03029/0346 SLP807 P0000 T11061139 FZRANO